createdAt,value
2023-03-06T00:01:03.803Z,6.30
2023-03-06T00:03:33.709Z,6.40
2023-03-06T00:06:03.072Z,7.43
2023-03-06T00:08:31.967Z,6.87
2023-03-06T00:11:00.971Z,7.20
2023-03-06T00:13:30.691Z,6.23
2023-03-06T00:16:01.830Z,6.20
2023-03-06T00:18:30.595Z,6.60
2023-03-06T00:20:59.059Z,6.17
2023-03-06T00:23:29.105Z,7.40
2023-03-06T00:25:57.601Z,7.47
2023-03-06T00:28:26.172Z,6.90
2023-03-06T00:30:54.795Z,7.40
2023-03-06T00:33:24.802Z,7.67
2023-03-06T00:35:55.286Z,7.10
2023-03-06T00:38:25.397Z,5.90
2023-03-06T00:40:53.928Z,5.77
2023-03-06T00:43:22.968Z,6.43
2023-03-06T00:45:51.504Z,7.33
2023-03-06T00:48:20.196Z,7.80
2023-03-06T00:50:50.260Z,6.37
2023-03-06T00:53:19.090Z,7.07
2023-03-06T00:55:47.881Z,7.50
2023-03-06T00:58:16.368Z,6.30
2023-03-06T01:00:45.992Z,6.20
2023-03-06T01:03:14.591Z,5.73
2023-03-06T01:05:43.637Z,6.43
2023-03-06T01:08:13.568Z,6.63
2023-03-06T01:10:42.788Z,6.77
2023-03-06T01:13:11.657Z,6.30
2023-03-06T01:15:40.331Z,7.90
2023-03-06T01:18:09.100Z,7.00
2023-03-06T01:20:38.299Z,6.67
2023-03-06T01:23:06.839Z,6.50
2023-03-06T01:25:38.079Z,6.57
2023-03-06T01:28:06.697Z,6.20
2023-03-06T01:30:35.183Z,6.17
2023-03-06T01:33:03.999Z,7.00
2023-03-06T01:35:32.566Z,6.80
2023-03-06T01:38:01.193Z,7.70
2023-03-06T01:40:32.872Z,6.67
2023-03-06T01:43:12.116Z,8.07
2023-03-06T01:46:34.167Z,7.53
2023-03-06T01:49:19.629Z,7.10
2023-03-06T01:51:55.052Z,7.90
2023-03-06T01:54:29.660Z,6.97
2023-03-06T01:57:03.829Z,8.40
2023-03-06T01:59:38.515Z,7.70
2023-03-06T02:02:10.841Z,8.67
2023-03-06T02:04:42.492Z,7.67
2023-03-06T02:07:12.528Z,7.87
2023-03-06T02:09:41.161Z,8.97
2023-03-06T02:12:13.871Z,7.97
2023-03-06T02:14:44.594Z,9.30
2023-03-06T02:17:17.983Z,9.03
2023-03-06T02:19:58.537Z,9.60
2023-03-06T02:22:37.150Z,7.97
2023-03-06T02:25:22.351Z,9.70
2023-03-06T02:27:51.215Z,8.77
2023-03-06T02:30:20.400Z,9.50
2023-03-06T02:32:49.565Z,8.97
2023-03-06T02:35:21.940Z,10.77
2023-03-06T02:37:51.254Z,8.70
2023-03-06T02:40:23.970Z,9.57
2023-03-06T02:42:56.477Z,9.10
2023-03-06T02:45:34.830Z,9.87
2023-03-06T02:48:03.509Z,9.20
2023-03-06T02:50:33.362Z,9.67
2023-03-06T02:53:03.165Z,8.97
2023-03-06T02:55:34.511Z,10.00
2023-03-06T02:58:04.289Z,9.40
2023-03-06T03:00:35.194Z,9.17
2023-03-06T03:03:07.212Z,9.50
2023-03-06T03:05:35.983Z,9.70
2023-03-06T03:08:12.985Z,9.00
2023-03-06T03:10:43.027Z,10.63
2023-03-06T03:13:11.563Z,10.00
2023-03-06T03:15:41.320Z,10.00
2023-03-06T03:18:11.687Z,8.80
2023-03-06T03:20:43.982Z,9.77
2023-03-06T03:23:13.575Z,9.50
2023-03-06T03:25:43.454Z,10.60
2023-03-06T03:28:12.260Z,10.40
2023-03-06T03:30:42.301Z,10.00
2023-03-06T03:33:12.849Z,9.53
2023-03-06T03:35:41.533Z,10.57
2023-03-06T03:38:10.090Z,10.00
2023-03-06T03:40:40.383Z,11.10
2023-03-06T03:43:10.689Z,11.53
2023-03-06T03:45:41.086Z,10.30
2023-03-06T03:48:09.660Z,10.03
2023-03-06T03:50:38.386Z,10.10
2023-03-06T03:53:07.477Z,10.03
2023-03-06T03:55:38.490Z,9.83
2023-03-06T03:58:07.391Z,11.00
2023-03-06T04:00:37.362Z,11.00
2023-03-06T04:03:13.031Z,9.30
2023-03-06T04:05:44.822Z,10.40
2023-03-06T04:08:16.110Z,8.77
2023-03-06T04:10:47.484Z,11.10
2023-03-06T04:13:18.039Z,9.43
2023-03-06T04:15:49.266Z,9.93
2023-03-06T04:18:18.197Z,9.30
2023-03-06T04:20:48.824Z,9.87
2023-03-06T04:23:19.196Z,11.13
2023-03-06T04:25:51.433Z,9.70
2023-03-06T04:28:20.771Z,8.43
2023-03-06T04:30:50.713Z,9.23
2023-03-06T04:33:19.983Z,10.30
2023-03-06T04:35:48.801Z,9.27
2023-03-06T04:38:23.299Z,10.17
2023-03-06T04:40:51.923Z,10.40
2023-03-06T04:43:20.789Z,10.50
2023-03-06T04:45:50.736Z,10.70
2023-03-06T04:48:20.028Z,10.90
2023-03-06T04:50:48.696Z,9.40
2023-03-06T04:53:19.595Z,10.20
2023-03-06T04:55:48.444Z,10.47
2023-03-06T04:58:17.267Z,10.50
2023-03-06T05:00:46.079Z,9.87
2023-03-06T05:03:16.127Z,9.87
2023-03-06T05:05:44.896Z,9.80
2023-03-06T05:08:15.837Z,11.90
2023-03-06T05:10:45.590Z,9.83
2023-03-06T05:13:14.471Z,9.30
2023-03-06T05:15:43.044Z,10.67
2023-03-06T05:18:11.778Z,10.37
2023-03-06T05:20:41.630Z,10.63
2023-03-06T05:23:10.291Z,10.27
2023-03-06T05:25:40.646Z,11.33
2023-03-06T05:28:09.934Z,9.67
2023-03-06T05:30:38.513Z,10.70
2023-03-06T05:33:06.972Z,10.27
2023-03-06T05:35:35.590Z,8.80
2023-03-06T05:38:05.597Z,10.73
2023-03-06T05:40:34.126Z,9.37
2023-03-06T05:43:02.767Z,11.67
2023-03-06T05:45:31.327Z,9.50
2023-03-06T05:47:59.929Z,9.97
2023-03-06T05:50:28.742Z,11.00
2023-03-06T05:52:57.405Z,11.43
2023-03-06T05:55:27.500Z,11.13
2023-03-06T05:57:56.208Z,9.40
2023-03-06T06:00:25.776Z,10.20
2023-03-06T06:02:54.432Z,10.60
2023-03-06T06:05:22.959Z,9.03
2023-03-06T06:07:51.429Z,10.43
2023-03-06T06:10:20.192Z,10.37
2023-03-06T06:12:50.182Z,10.90
2023-03-06T06:15:19.146Z,10.43
2023-03-06T06:17:47.735Z,10.30
2023-03-06T06:20:17.237Z,10.50
2023-03-06T06:22:45.659Z,10.83
2023-03-06T06:25:14.760Z,10.30
2023-03-06T06:27:43.681Z,9.70
2023-03-06T06:30:15.166Z,11.10
2023-03-06T06:32:43.703Z,11.20
2023-03-06T06:35:23.997Z,12.60
2023-03-06T06:37:52.764Z,10.60
2023-03-06T06:40:24.359Z,11.00
2023-03-06T06:42:54.443Z,12.60
2023-03-06T06:45:24.350Z,9.87
2023-03-06T06:47:52.888Z,9.83
2023-03-06T06:50:21.571Z,9.70
2023-03-06T06:52:50.090Z,10.80
2023-03-06T06:55:18.798Z,12.60
2023-03-06T06:57:47.456Z,11.30
2023-03-06T07:00:18.027Z,11.17
2023-03-06T07:02:49.226Z,9.70
2023-03-06T07:05:20.997Z,11.40
2023-03-06T07:07:51.333Z,9.87
2023-03-06T07:10:21.170Z,10.73
2023-03-06T07:12:50.078Z,11.43
2023-03-06T07:15:19.936Z,11.50
2023-03-06T07:17:50.408Z,10.47
2023-03-06T07:20:20.390Z,10.23
2023-03-06T07:22:51.878Z,11.23
2023-03-06T07:25:22.379Z,10.93
2023-03-06T07:27:55.174Z,10.00
2023-03-06T07:30:24.914Z,11.50
2023-03-06T07:32:59.781Z,11.40
2023-03-06T07:35:28.846Z,11.60
2023-03-06T07:38:00.360Z,11.57
2023-03-06T07:40:29.283Z,11.20
2023-03-06T07:43:16.892Z,12.90
2023-03-06T07:45:58.202Z,14.77
2023-03-06T07:48:29.155Z,13.10
2023-03-06T07:51:00.271Z,13.20
2023-03-06T07:53:30.835Z,13.00
2023-03-06T07:55:59.996Z,12.07
2023-03-06T07:58:28.995Z,11.67
2023-03-06T08:00:57.687Z,10.63
2023-03-06T08:03:27.726Z,10.23
2023-03-06T08:06:05.195Z,10.47
2023-03-06T08:08:35.478Z,10.90
2023-03-06T08:11:04.784Z,10.97
2023-03-06T08:13:33.533Z,10.10
2023-03-06T08:16:02.497Z,11.27
2023-03-06T08:18:33.126Z,11.70
2023-03-06T08:21:07.165Z,11.03
2023-03-06T08:23:36.842Z,11.00
2023-03-06T08:26:09.117Z,12.90
2023-03-06T08:28:37.852Z,12.33
2023-03-06T08:31:13.301Z,13.33
2023-03-06T08:33:43.726Z,11.23
2023-03-06T08:36:12.261Z,11.73
2023-03-06T08:38:40.732Z,11.30
2023-03-06T08:41:09.586Z,10.40
2023-03-06T08:43:38.141Z,12.40
2023-03-06T08:46:07.227Z,11.43
2023-03-06T08:48:35.786Z,11.00
2023-03-06T08:51:06.716Z,11.13
2023-03-06T08:53:43.186Z,12.30
2023-03-06T08:56:19.008Z,11.30
2023-03-06T08:58:47.992Z,11.83
2023-03-06T09:01:18.685Z,13.17
2023-03-06T09:03:47.559Z,11.90
2023-03-06T09:06:18.191Z,12.53
2023-03-06T09:08:47.676Z,10.00
2023-03-06T09:11:17.075Z,13.33
2023-03-06T09:13:45.782Z,12.00
2023-03-06T09:16:14.626Z,12.00
2023-03-06T09:18:43.692Z,13.30
2023-03-06T09:21:12.861Z,12.60
2023-03-06T09:23:42.783Z,12.73
2023-03-06T09:26:14.067Z,12.60
2023-03-06T09:28:43.241Z,13.73
2023-03-06T09:31:15.068Z,11.70
2023-03-06T09:33:44.040Z,11.30
2023-03-06T09:36:17.510Z,10.50
2023-03-06T09:38:49.902Z,10.83
2023-03-06T09:41:38.631Z,11.67
2023-03-06T09:44:14.645Z,11.40
2023-03-06T09:47:09.822Z,11.10
2023-03-06T09:50:09.866Z,11.40
2023-03-06T09:52:53.342Z,11.20
2023-03-06T09:55:27.711Z,12.03
2023-03-06T09:58:02.398Z,12.53
2023-03-06T10:00:38.167Z,13.90
2023-03-06T10:03:20.798Z,10.70
2023-03-06T10:05:56.238Z,13.30
2023-03-06T10:08:35.714Z,9.10
2023-03-06T10:11:11.668Z,9.70
2023-03-06T10:13:44.630Z,9.83
2023-03-06T10:16:27.014Z,8.93
2023-03-06T10:19:00.097Z,7.40
2023-03-06T10:21:44.508Z,7.20
2023-03-06T10:24:35.576Z,6.00
2023-03-06T10:27:23.488Z,5.87
2023-03-06T10:30:05.389Z,5.30
2023-03-06T10:32:48.998Z,5.80
2023-03-06T10:35:25.625Z,5.53
2023-03-06T10:38:03.224Z,5.97
2023-03-06T10:40:47.624Z,5.20
2023-03-06T10:43:17.673Z,5.30
2023-03-06T10:45:52.843Z,5.80
2023-03-06T10:48:25.893Z,5.70
2023-03-06T10:51:18.150Z,4.30
2023-03-06T10:53:53.995Z,5.60
2023-03-06T10:56:32.908Z,5.43
2023-03-06T10:59:13.987Z,4.97
2023-03-06T11:01:44.369Z,5.70
2023-03-06T11:04:24.167Z,5.30
2023-03-06T11:07:15.320Z,5.50
2023-03-06T11:09:47.872Z,5.23
2023-03-06T11:12:27.982Z,5.03
2023-03-06T11:15:21.197Z,5.60
2023-03-06T11:17:59.417Z,5.93
2023-03-06T11:20:50.078Z,5.50
2023-03-06T11:23:26.306Z,4.20
2023-03-06T11:26:03.389Z,5.07
2023-03-06T11:28:38.155Z,4.87
2023-03-06T11:31:16.126Z,5.47
2023-03-06T11:33:53.546Z,6.23
2023-03-06T11:36:30.563Z,4.90
2023-03-06T11:38:59.158Z,4.83
2023-03-06T11:41:40.164Z,6.10
2023-03-06T11:44:23.143Z,5.60
2023-03-06T11:47:05.177Z,4.70
2023-03-06T11:49:41.637Z,4.43
2023-03-06T11:52:24.198Z,4.87
2023-03-06T11:54:57.300Z,4.70
2023-03-06T11:57:36.291Z,4.27
2023-03-06T12:00:29.656Z,4.43
2023-03-06T12:03:49.920Z,5.23
2023-03-06T12:06:35.872Z,5.07
2023-03-06T12:09:29.685Z,4.87
2023-03-06T12:12:20.513Z,5.37
2023-03-06T12:15:14.431Z,6.50
2023-03-06T12:18:16.419Z,7.37
2023-03-06T12:21:01.142Z,8.80
2023-03-06T12:23:52.597Z,7.23
2023-03-06T12:26:45.593Z,7.40
2023-03-06T12:29:34.107Z,8.10
2023-03-06T12:32:17.740Z,7.50
2023-03-06T12:35:18.377Z,7.10
2023-03-06T12:38:05.008Z,7.77
2023-03-06T12:40:52.964Z,8.57
2023-03-06T12:44:03.459Z,7.50
2023-03-06T12:46:37.670Z,7.70
2023-03-06T12:49:23.062Z,7.10
2023-03-06T12:52:02.295Z,7.53
2023-03-06T12:54:36.133Z,7.20
2023-03-06T12:57:08.392Z,6.57
2023-03-06T12:59:44.490Z,6.20
2023-03-06T13:03:01.878Z,5.73
2023-03-06T13:06:05.653Z,5.20
2023-03-06T13:09:13.289Z,4.33
2023-03-06T13:12:10.955Z,5.93
2023-03-06T13:14:58.129Z,5.30
2023-03-06T13:17:35.156Z,6.20
2023-03-06T13:20:35.586Z,6.07
2023-03-06T13:23:52.398Z,5.30
2023-03-06T13:27:06.744Z,5.93
2023-03-06T13:30:24.380Z,5.40
2023-03-06T13:32:54.140Z,5.10
2023-03-06T13:35:55.862Z,5.13
2023-03-06T13:38:59.720Z,4.87
2023-03-06T13:41:54.065Z,5.57
2023-03-06T13:44:53.020Z,5.73
2023-03-06T13:50:45.287Z,5.30
2023-03-06T13:54:02.220Z,5.20
2023-03-06T13:57:27.828Z,5.33
2023-03-06T14:00:29.202Z,5.23
2023-03-06T14:03:40.346Z,4.90
2023-03-06T14:07:06.463Z,4.77
2023-03-06T14:09:42.456Z,4.30
2023-03-06T14:12:26.194Z,3.80
2023-03-06T14:14:58.696Z,4.87
2023-03-06T14:17:32.947Z,5.00
2023-03-06T14:20:13.873Z,4.10
2023-03-06T14:22:42.755Z,4.70
2023-03-06T14:25:20.437Z,4.13
2023-03-06T14:27:54.955Z,4.47
2023-03-06T14:30:26.718Z,3.97
2023-03-06T14:32:57.390Z,4.20
2023-03-06T14:35:32.159Z,4.20
2023-03-06T14:38:06.185Z,4.10
2023-03-06T14:40:37.922Z,3.93
2023-03-06T14:43:22.994Z,4.07
2023-03-06T14:45:57.936Z,4.63
2023-03-06T14:48:41.004Z,4.07
2023-03-06T14:51:18.253Z,3.70
2023-03-06T14:53:50.258Z,4.27
2023-03-06T14:56:22.622Z,4.30
2023-03-06T14:58:58.601Z,4.63
2023-03-06T15:01:34.383Z,4.03
2023-03-06T15:04:15.923Z,4.37
2023-03-06T15:06:46.598Z,4.20
2023-03-06T15:09:21.494Z,4.63
2023-03-06T15:11:57.245Z,4.13
2023-03-06T15:14:34.419Z,4.73
2023-03-06T15:17:29.278Z,4.80
2023-03-06T15:20:01.785Z,4.23
2023-03-06T15:22:37.725Z,4.93
2023-03-06T15:25:27.667Z,4.10
2023-03-06T15:27:59.134Z,3.70
2023-03-06T15:30:31.399Z,4.57
2023-03-06T15:33:24.646Z,3.80
2023-03-06T15:35:57.490Z,5.30
2023-03-06T15:38:35.127Z,4.30
2023-03-06T15:41:21.234Z,6.17
2023-03-06T15:43:49.797Z,5.00
2023-03-06T15:46:18.409Z,5.07
2023-03-06T15:48:55.442Z,5.03
2023-03-06T15:51:25.881Z,6.00
2023-03-06T15:53:59.780Z,5.77
2023-03-06T15:56:40.221Z,5.10
2023-03-06T15:59:15.332Z,6.00
2023-03-06T16:01:44.398Z,9.10
2023-03-06T16:04:13.974Z,7.60
2023-03-06T16:06:45.411Z,8.27
2023-03-06T16:09:15.260Z,7.57
2023-03-06T16:11:45.723Z,6.27
2023-03-06T16:14:21.389Z,4.70
2023-03-06T16:16:50.445Z,7.30
2023-03-06T16:19:29.132Z,5.17
2023-03-06T16:21:59.188Z,5.00
2023-03-06T16:24:27.660Z,4.80
2023-03-06T16:27:00.569Z,4.87
2023-03-06T16:29:30.679Z,4.53
2023-03-06T16:32:01.733Z,7.00
2023-03-06T16:34:30.373Z,5.90
2023-03-06T16:37:00.352Z,5.30
2023-03-06T16:39:28.909Z,5.30
2023-03-06T16:41:57.375Z,6.07
2023-03-06T16:44:25.974Z,5.30
2023-03-06T16:46:54.583Z,5.37
2023-03-06T16:49:26.488Z,6.63
2023-03-06T16:51:56.285Z,5.70
2023-03-06T16:54:26.317Z,6.00
2023-03-06T16:56:54.879Z,5.80
2023-03-06T16:59:24.849Z,5.77
2023-03-06T17:01:53.415Z,5.63
2023-03-06T17:04:22.006Z,5.20
2023-03-06T17:06:52.870Z,6.20
2023-03-06T17:09:21.515Z,5.10
2023-03-06T17:11:51.504Z,5.57
2023-03-06T17:14:20.475Z,6.33
2023-03-06T17:16:49.027Z,5.70
2023-03-06T17:19:17.702Z,5.87
2023-03-06T17:21:46.378Z,5.80
2023-03-06T17:24:14.970Z,6.37
2023-03-06T17:26:44.363Z,6.10
2023-03-06T17:29:14.304Z,5.50
2023-03-06T17:31:42.993Z,6.60
2023-03-06T17:34:11.551Z,7.20
2023-03-06T17:36:40.098Z,7.07
2023-03-06T17:39:08.652Z,6.70
2023-03-06T17:41:37.238Z,7.17
2023-03-06T17:44:06.588Z,6.73
2023-03-06T17:46:37.114Z,6.60
2023-03-06T17:49:05.891Z,6.87
2023-03-06T17:51:34.491Z,6.30
2023-03-06T17:54:03.080Z,8.27
2023-03-06T17:56:33.935Z,7.90
2023-03-06T17:59:03.049Z,7.07
2023-03-06T18:01:34.494Z,6.40
2023-03-06T18:04:04.986Z,7.80
2023-03-06T18:06:35.138Z,7.77
2023-03-06T18:09:05.012Z,7.67
2023-03-06T18:11:34.206Z,7.03
2023-03-06T18:14:05.567Z,6.83
2023-03-06T18:16:34.913Z,7.03
2023-03-06T18:19:05.018Z,7.73
2023-03-06T18:21:33.784Z,7.07
2023-03-06T18:24:02.357Z,7.57
2023-03-06T18:26:32.185Z,8.80
2023-03-06T18:29:04.772Z,9.67
2023-03-06T18:31:36.152Z,8.07
2023-03-06T18:34:10.121Z,7.77
2023-03-06T18:36:39.714Z,8.27
2023-03-06T18:39:11.535Z,7.13
2023-03-06T18:41:40.283Z,7.83
2023-03-06T18:44:09.070Z,7.30
2023-03-06T18:46:39.846Z,8.40
2023-03-06T18:49:11.395Z,7.07
2023-03-06T18:51:40.703Z,8.27
2023-03-06T18:54:09.938Z,7.47
2023-03-06T18:56:39.844Z,8.47
2023-03-06T18:59:16.969Z,9.47
2023-03-06T19:01:48.506Z,9.30
2023-03-06T19:04:18.571Z,9.67
2023-03-06T19:06:47.309Z,9.00
2023-03-06T19:09:15.961Z,7.50
2023-03-06T19:11:46.777Z,8.73
2023-03-06T19:14:16.350Z,8.90
2023-03-06T19:16:45.331Z,8.47
2023-03-06T19:19:13.930Z,7.83
2023-03-06T19:21:43.920Z,9.97
2023-03-06T19:24:14.084Z,10.70
2023-03-06T19:26:42.990Z,10.10
2023-03-06T19:29:11.611Z,8.50
2023-03-06T19:31:40.645Z,8.77
2023-03-06T19:34:09.534Z,7.70
2023-03-06T19:36:40.701Z,8.90
2023-03-06T19:39:12.927Z,9.73
2023-03-06T19:41:41.870Z,13.90
2023-03-06T19:44:12.238Z,11.57
2023-03-06T19:46:40.815Z,11.90
2023-03-06T19:49:12.176Z,11.30
2023-03-06T19:51:40.985Z,12.20
2023-03-06T19:54:12.285Z,10.67
2023-03-06T19:56:41.732Z,9.90
2023-03-06T19:59:10.897Z,10.03
2023-03-06T20:01:39.766Z,10.07
2023-03-06T20:04:08.567Z,10.50
2023-03-06T20:06:38.755Z,9.93
2023-03-06T20:09:12.188Z,9.43
2023-03-06T20:11:40.911Z,8.70
2023-03-06T20:14:10.031Z,10.80
2023-03-06T20:16:39.306Z,9.50
2023-03-06T20:19:12.933Z,10.40
2023-03-06T20:21:41.616Z,8.73
2023-03-06T20:24:19.179Z,10.37
2023-03-06T20:26:51.144Z,8.97
2023-03-06T20:29:20.205Z,7.67
2023-03-06T20:31:48.896Z,7.80
2023-03-06T20:34:17.534Z,7.77
2023-03-06T20:36:46.110Z,9.00
2023-03-06T20:39:19.111Z,7.97
2023-03-06T20:41:47.745Z,7.37
2023-03-06T20:44:19.741Z,7.20
2023-03-06T20:46:48.691Z,7.23
2023-03-06T20:49:17.878Z,8.27
2023-03-06T20:51:47.094Z,7.80
2023-03-06T20:54:18.221Z,7.83
2023-03-06T20:56:50.191Z,7.63
2023-03-06T20:59:19.424Z,7.70
2023-03-06T21:01:48.326Z,7.90
2023-03-06T21:04:17.386Z,8.70
2023-03-06T21:06:47.932Z,7.50
2023-03-06T21:09:18.601Z,7.20
2023-03-06T21:11:47.719Z,7.40
2023-03-06T21:14:16.822Z,7.47
2023-03-06T21:16:45.658Z,7.93
2023-03-06T21:19:14.295Z,8.30
2023-03-06T21:21:43.093Z,7.37
2023-03-06T21:24:11.813Z,8.57
2023-03-06T21:26:41.912Z,8.00
2023-03-06T21:29:10.378Z,7.50
2023-03-06T21:31:40.307Z,7.83
2023-03-06T21:34:10.553Z,6.80
2023-03-06T21:36:39.220Z,8.33
2023-03-06T21:39:08.071Z,8.23
2023-03-06T21:41:38.079Z,7.70
2023-03-06T21:44:08.679Z,7.47
2023-03-06T21:46:37.526Z,8.50
2023-03-06T21:49:06.770Z,8.17
2023-03-06T21:51:35.817Z,7.77
2023-03-06T21:54:04.870Z,7.20
2023-03-06T21:56:33.638Z,7.17
2023-03-06T21:59:02.644Z,7.20
2023-03-06T22:01:32.891Z,8.40
2023-03-06T22:04:01.657Z,7.03
2023-03-06T22:06:32.292Z,8.07
2023-03-06T22:09:02.362Z,7.57
2023-03-06T22:11:34.229Z,8.33
2023-03-06T22:14:03.172Z,8.00
2023-03-06T22:16:33.741Z,7.80
2023-03-06T22:19:02.421Z,7.80
2023-03-06T22:21:31.124Z,7.27
2023-03-06T22:24:00.665Z,8.23
2023-03-06T22:26:32.440Z,8.13
2023-03-06T22:29:01.023Z,7.53
2023-03-06T22:31:30.488Z,8.13
2023-03-06T22:34:02.337Z,8.17
2023-03-06T22:36:32.536Z,8.30
2023-03-06T22:39:04.180Z,8.73
2023-03-06T22:41:33.235Z,8.90
2023-03-06T22:44:03.418Z,8.27
2023-03-06T22:46:33.528Z,7.47
2023-03-06T22:49:03.772Z,8.53
2023-03-06T22:51:32.724Z,7.87
2023-03-06T22:54:01.380Z,8.20
2023-03-06T22:56:29.923Z,7.93
2023-03-06T22:58:58.997Z,8.47
2023-03-06T23:01:31.245Z,8.20
2023-03-06T23:04:02.279Z,8.47
2023-03-06T23:06:34.840Z,8.77
2023-03-06T23:09:08.026Z,9.70
2023-03-06T23:11:55.247Z,8.60
2023-03-06T23:14:42.651Z,8.93
2023-03-06T23:17:29.940Z,8.47
2023-03-06T23:20:17.316Z,9.20
2023-03-06T23:23:05.894Z,8.50
2023-03-06T23:25:44.074Z,10.00
2023-03-06T23:28:13.388Z,7.83
2023-03-06T23:30:43.607Z,9.20
2023-03-06T23:33:12.636Z,8.63
2023-03-06T23:35:41.457Z,8.53
2023-03-06T23:38:11.371Z,8.80
2023-03-06T23:40:40.791Z,8.00
2023-03-06T23:43:09.528Z,8.43
2023-03-06T23:45:38.133Z,8.60
2023-03-06T23:48:08.019Z,8.90
2023-03-06T23:50:36.626Z,10.40
2023-03-06T23:53:05.086Z,8.80
2023-03-06T23:55:35.879Z,8.47
2023-03-06T23:58:04.424Z,8.77
